sensor_id;sensor_type;location;lat;lon;timestamp;P1;durP1;ratioP1;P2;durP2;ratioP2
28192;SDS011;15473;50.840;3.396;2023-03-11T00:02:24;4.85;;;2.67;;
28192;SDS011;15473;50.840;3.396;2023-03-11T00:04:54;7.87;;;2.15;;
28192;SDS011;15473;50.840;3.396;2023-03-11T00:07:25;6.72;;;2.47;;
28192;SDS011;15473;50.840;3.396;2023-03-11T00:09:57;9.10;;;3.35;;
28192;SDS011;15473;50.840;3.396;2023-03-11T00:12:48;2.58;;;1.70;;
28192;SDS011;15473;50.840;3.396;2023-03-11T00:15:32;4.67;;;2.12;;
28192;SDS011;15473;50.840;3.396;2023-03-11T00:18:09;3.62;;;2.40;;
28192;SDS011;15473;50.840;3.396;2023-03-11T00:20:42;7.00;;;2.65;;
28192;SDS011;15473;50.840;3.396;2023-03-11T00:23:13;5.03;;;2.67;;
28192;SDS011;15473;50.840;3.396;2023-03-11T00:25:44;3.50;;;2.10;;
28192;SDS011;15473;50.840;3.396;2023-03-11T00:28:15;4.47;;;2.15;;
28192;SDS011;15473;50.840;3.396;2023-03-11T00:30:45;5.05;;;2.17;;
28192;SDS011;15473;50.840;3.396;2023-03-11T00:33:22;7.92;;;2.25;;
28192;SDS011;15473;50.840;3.396;2023-03-11T00:35:53;5.33;;;2.15;;
28192;SDS011;15473;50.840;3.396;2023-03-11T00:38:29;4.20;;;2.65;;
28192;SDS011;15473;50.840;3.396;2023-03-11T00:41:05;7.08;;;2.12;;
28192;SDS011;15473;50.840;3.396;2023-03-11T00:43:35;5.10;;;2.27;;
28192;SDS011;15473;50.840;3.396;2023-03-11T00:46:05;3.98;;;2.70;;
28192;SDS011;15473;50.840;3.396;2023-03-11T00:48:42;3.67;;;2.10;;
28192;SDS011;15473;50.840;3.396;2023-03-11T00:51:14;7.83;;;2.70;;
28192;SDS011;15473;50.840;3.396;2023-03-11T00:53:51;5.12;;;2.83;;
28192;SDS011;15473;50.840;3.396;2023-03-11T00:56:28;3.10;;;2.05;;
28192;SDS011;15473;50.840;3.396;2023-03-11T00:58:58;4.47;;;2.00;;
28192;SDS011;15473;50.840;3.396;2023-03-11T01:01:29;8.08;;;2.42;;
28192;SDS011;15473;50.840;3.396;2023-03-11T01:06:49;3.12;;;2.10;;
28192;SDS011;15473;50.840;3.396;2023-03-11T01:09:19;3.90;;;1.95;;
28192;SDS011;15473;50.840;3.396;2023-03-11T01:11:53;6.08;;;2.02;;
28192;SDS011;15473;50.840;3.396;2023-03-11T01:14:25;4.15;;;2.25;;
28192;SDS011;15473;50.840;3.396;2023-03-11T01:16:55;4.35;;;1.90;;
28192;SDS011;15473;50.840;3.396;2023-03-11T01:19:32;2.62;;;2.00;;
28192;SDS011;15473;50.840;3.396;2023-03-11T01:22:09;3.05;;;1.92;;
28192;SDS011;15473;50.840;3.396;2023-03-11T01:24:40;3.37;;;2.00;;
28192;SDS011;15473;50.840;3.396;2023-03-11T01:27:10;5.35;;;1.77;;
28192;SDS011;15473;50.840;3.396;2023-03-11T01:29:41;3.72;;;2.20;;
28192;SDS011;15473;50.840;3.396;2023-03-11T01:32:11;3.75;;;2.00;;
28192;SDS011;15473;50.840;3.396;2023-03-11T01:34:44;3.40;;;2.30;;
28192;SDS011;15473;50.840;3.396;2023-03-11T01:37:14;3.60;;;1.82;;
28192;SDS011;15473;50.840;3.396;2023-03-11T01:39:51;4.37;;;2.08;;
28192;SDS011;15473;50.840;3.396;2023-03-11T01:42:22;5.92;;;2.08;;
28192;SDS011;15473;50.840;3.396;2023-03-11T01:44:52;2.80;;;2.22;;
28192;SDS011;15473;50.840;3.396;2023-03-11T01:47:34;5.25;;;2.08;;
28192;SDS011;15473;50.840;3.396;2023-03-11T01:50:07;8.43;;;2.77;;
28192;SDS011;15473;50.840;3.396;2023-03-11T01:52:41;3.12;;;2.00;;
28192;SDS011;15473;50.840;3.396;2023-03-11T01:55:19;2.72;;;1.77;;
28192;SDS011;15473;50.840;3.396;2023-03-11T01:57:56;6.87;;;2.35;;
28192;SDS011;15473;50.840;3.396;2023-03-11T02:00:30;3.03;;;2.00;;
28192;SDS011;15473;50.840;3.396;2023-03-11T02:03:18;3.05;;;1.85;;
28192;SDS011;15473;50.840;3.396;2023-03-11T02:05:52;2.45;;;1.75;;
28192;SDS011;15473;50.840;3.396;2023-03-11T02:08:26;3.30;;;2.00;;
28192;SDS011;15473;50.840;3.396;2023-03-11T02:11:04;2.47;;;1.92;;
28192;SDS011;15473;50.840;3.396;2023-03-11T02:13:37;3.00;;;2.00;;
28192;SDS011;15473;50.840;3.396;2023-03-11T02:16:27;3.60;;;2.22;;
28192;SDS011;15473;50.840;3.396;2023-03-11T02:18:59;3.47;;;2.10;;
28192;SDS011;15473;50.840;3.396;2023-03-11T02:21:49;5.37;;;2.77;;
28192;SDS011;15473;50.840;3.396;2023-03-11T02:24:49;2.98;;;2.02;;
28192;SDS011;15473;50.840;3.396;2023-03-11T02:27:30;2.15;;;1.95;;
28192;SDS011;15473;50.840;3.396;2023-03-11T02:32:37;6.95;;;2.35;;
28192;SDS011;15473;50.840;3.396;2023-03-11T02:35:08;3.05;;;2.00;;
28192;SDS011;15473;50.840;3.396;2023-03-11T02:37:43;3.37;;;2.62;;
28192;SDS011;15473;50.840;3.396;2023-03-11T02:40:50;2.55;;;2.35;;
28192;SDS011;15473;50.840;3.396;2023-03-11T02:43:12;5.47;;;1.98;;
28192;SDS011;15473;50.840;3.396;2023-03-11T02:45:44;3.90;;;2.05;;
28192;SDS011;15473;50.840;3.396;2023-03-11T02:48:16;3.47;;;2.17;;
28192;SDS011;15473;50.840;3.396;2023-03-11T02:50:48;3.65;;;2.58;;
28192;SDS011;15473;50.840;3.396;2023-03-11T02:53:21;3.58;;;2.30;;
28192;SDS011;15473;50.840;3.396;2023-03-11T02:55:51;4.22;;;2.02;;
28192;SDS011;15473;50.840;3.396;2023-03-11T02:58:21;3.08;;;2.02;;
28192;SDS011;15473;50.840;3.396;2023-03-11T03:00:57;2.37;;;1.90;;
28192;SDS011;15473;50.840;3.396;2023-03-11T03:03:27;5.00;;;2.33;;
28192;SDS011;15473;50.840;3.396;2023-03-11T03:06:04;5.65;;;2.45;;
28192;SDS011;15473;50.840;3.396;2023-03-11T03:08:41;2.30;;;1.95;;
28192;SDS011;15473;50.840;3.396;2023-03-11T03:11:11;4.25;;;2.22;;
28192;SDS011;15473;50.840;3.396;2023-03-11T03:13:42;2.58;;;2.30;;
28192;SDS011;15473;50.840;3.396;2023-03-11T03:16:15;4.20;;;2.42;;
28192;SDS011;15473;50.840;3.396;2023-03-11T03:18:51;5.15;;;2.45;;
28192;SDS011;15473;50.840;3.396;2023-03-11T03:21:21;3.02;;;2.50;;
28192;SDS011;15473;50.840;3.396;2023-03-11T03:23:51;4.62;;;2.58;;
28192;SDS011;15473;50.840;3.396;2023-03-11T03:26:27;3.17;;;2.08;;
28192;SDS011;15473;50.840;3.396;2023-03-11T03:28:57;5.35;;;3.12;;
28192;SDS011;15473;50.840;3.396;2023-03-11T03:31:30;6.10;;;2.75;;
28192;SDS011;15473;50.840;3.396;2023-03-11T03:34:00;3.33;;;2.45;;
28192;SDS011;15473;50.840;3.396;2023-03-11T03:36:31;2.75;;;2.42;;
28192;SDS011;15473;50.840;3.396;2023-03-11T03:39:02;5.05;;;2.77;;
28192;SDS011;15473;50.840;3.396;2023-03-11T03:41:34;7.10;;;2.50;;
28192;SDS011;15473;50.840;3.396;2023-03-11T03:44:04;5.53;;;2.80;;
28192;SDS011;15473;50.840;3.396;2023-03-11T03:46:35;4.50;;;3.10;;
28192;SDS011;15473;50.840;3.396;2023-03-11T03:49:07;4.42;;;2.70;;
28192;SDS011;15473;50.840;3.396;2023-03-11T03:51:41;5.25;;;3.20;;
28192;SDS011;15473;50.840;3.396;2023-03-11T03:54:12;7.00;;;3.27;;
28192;SDS011;15473;50.840;3.396;2023-03-11T03:56:43;3.47;;;2.25;;
28192;SDS011;15473;50.840;3.396;2023-03-11T03:59:15;4.05;;;2.33;;
28192;SDS011;15473;50.840;3.396;2023-03-11T04:01:45;4.10;;;2.47;;
28192;SDS011;15473;50.840;3.396;2023-03-11T04:04:22;2.40;;;2.00;;
28192;SDS011;15473;50.840;3.396;2023-03-11T04:06:56;4.00;;;2.40;;
28192;SDS011;15473;50.840;3.396;2023-03-11T04:09:31;2.70;;;2.08;;
28192;SDS011;15473;50.840;3.396;2023-03-11T04:12:02;3.45;;;2.47;;
28192;SDS011;15473;50.840;3.396;2023-03-11T04:14:34;4.22;;;2.83;;
28192;SDS011;15473;50.840;3.396;2023-03-11T04:17:12;4.65;;;2.75;;
28192;SDS011;15473;50.840;3.396;2023-03-11T04:19:48;5.95;;;2.20;;
28192;SDS011;15473;50.840;3.396;2023-03-11T04:22:18;4.78;;;2.67;;
28192;SDS011;15473;50.840;3.396;2023-03-11T04:24:55;2.60;;;2.25;;
28192;SDS011;15473;50.840;3.396;2023-03-11T04:27:26;4.65;;;2.05;;
28192;SDS011;15473;50.840;3.396;2023-03-11T04:29:56;7.55;;;2.47;;
28192;SDS011;15473;50.840;3.396;2023-03-11T04:32:33;2.98;;;2.20;;
28192;SDS011;15473;50.840;3.396;2023-03-11T04:35:04;2.70;;;2.50;;
28192;SDS011;15473;50.840;3.396;2023-03-11T04:37:35;2.58;;;2.37;;
28192;SDS011;15473;50.840;3.396;2023-03-11T04:40:11;3.30;;;2.42;;
28192;SDS011;15473;50.840;3.396;2023-03-11T04:45:33;2.72;;;2.22;;
28192;SDS011;15473;50.840;3.396;2023-03-11T04:48:04;8.25;;;2.27;;
28192;SDS011;15473;50.840;3.396;2023-03-11T04:50:39;2.60;;;2.35;;
28192;SDS011;15473;50.840;3.396;2023-03-11T04:53:09;3.58;;;2.22;;
28192;SDS011;15473;50.840;3.396;2023-03-11T04:55:45;5.70;;;2.10;;
28192;SDS011;15473;50.840;3.396;2023-03-11T04:58:22;2.60;;;2.10;;
28192;SDS011;15473;50.840;3.396;2023-03-11T05:00:52;3.33;;;2.17;;
28192;SDS011;15473;50.840;3.396;2023-03-11T05:03:25;2.52;;;2.33;;
28192;SDS011;15473;50.840;3.396;2023-03-11T05:05:55;4.17;;;2.20;;
28192;SDS011;15473;50.840;3.396;2023-03-11T05:08:27;7.40;;;2.42;;
28192;SDS011;15473;50.840;3.396;2023-03-11T05:10:57;3.92;;;2.75;;
28192;SDS011;15473;50.840;3.396;2023-03-11T05:13:29;5.20;;;2.77;;
28192;SDS011;15473;50.840;3.396;2023-03-11T05:15:59;2.77;;;1.87;;
28192;SDS011;15473;50.840;3.396;2023-03-11T05:18:30;2.55;;;2.10;;
28192;SDS011;15473;50.840;3.396;2023-03-11T05:21:00;2.80;;;2.30;;
28192;SDS011;15473;50.840;3.396;2023-03-11T05:23:30;4.30;;;2.27;;
28192;SDS011;15473;50.840;3.396;2023-03-11T05:26:01;3.90;;;2.47;;
28192;SDS011;15473;50.840;3.396;2023-03-11T05:28:34;3.67;;;2.90;;
28192;SDS011;15473;50.840;3.396;2023-03-11T05:31:08;3.85;;;2.47;;
28192;SDS011;15473;50.840;3.396;2023-03-11T05:33:45;4.20;;;2.42;;
28192;SDS011;15473;50.840;3.396;2023-03-11T05:36:22;8.83;;;3.05;;
28192;SDS011;15473;50.840;3.396;2023-03-11T05:38:52;2.42;;;2.20;;
28192;SDS011;15473;50.840;3.396;2023-03-11T05:41:22;4.55;;;2.22;;
28192;SDS011;15473;50.840;3.396;2023-03-11T05:43:58;3.12;;;2.20;;
28192;SDS011;15473;50.840;3.396;2023-03-11T05:46:28;4.33;;;2.20;;
28192;SDS011;15473;50.840;3.396;2023-03-11T05:48:59;4.75;;;2.22;;
28192;SDS011;15473;50.840;3.396;2023-03-11T05:51:31;2.72;;;2.33;;
28192;SDS011;15473;50.840;3.396;2023-03-11T05:54:01;2.52;;;1.95;;
28192;SDS011;15473;50.840;3.396;2023-03-11T05:56:31;2.62;;;2.20;;
28192;SDS011;15473;50.840;3.396;2023-03-11T05:59:02;2.85;;;2.20;;
28192;SDS011;15473;50.840;3.396;2023-03-11T06:01:39;3.55;;;2.02;;
28192;SDS011;15473;50.840;3.396;2023-03-11T06:04:10;2.22;;;1.92;;
28192;SDS011;15473;50.840;3.396;2023-03-11T06:06:47;4.85;;;2.52;;
28192;SDS011;15473;50.840;3.396;2023-03-11T06:09:23;4.17;;;2.12;;
28192;SDS011;15473;50.840;3.396;2023-03-11T06:11:55;4.42;;;1.90;;
28192;SDS011;15473;50.840;3.396;2023-03-11T06:14:25;2.45;;;1.95;;
28192;SDS011;15473;50.840;3.396;2023-03-11T06:16:57;3.58;;;2.25;;
28192;SDS011;15473;50.840;3.396;2023-03-11T06:19:34;2.00;;;1.90;;
28192;SDS011;15473;50.840;3.396;2023-03-11T06:22:04;5.15;;;2.52;;
28192;SDS011;15473;50.840;3.396;2023-03-11T06:24:40;4.87;;;2.75;;
28192;SDS011;15473;50.840;3.396;2023-03-11T06:27:10;3.83;;;2.00;;
28192;SDS011;15473;50.840;3.396;2023-03-11T06:29:50;3.83;;;2.30;;
28192;SDS011;15473;50.840;3.396;2023-03-11T06:32:23;3.67;;;2.33;;
28192;SDS011;15473;50.840;3.396;2023-03-11T06:35:00;3.17;;;2.60;;
28192;SDS011;15473;50.840;3.396;2023-03-11T06:37:38;4.62;;;2.42;;
28192;SDS011;15473;50.840;3.396;2023-03-11T06:40:08;3.95;;;2.50;;
28192;SDS011;15473;50.840;3.396;2023-03-11T06:42:39;5.95;;;2.80;;
28192;SDS011;15473;50.840;3.396;2023-03-11T06:45:16;4.70;;;2.77;;
28192;SDS011;15473;50.840;3.396;2023-03-11T06:47:53;4.45;;;2.33;;
28192;SDS011;15473;50.840;3.396;2023-03-11T06:50:26;5.05;;;3.33;;
28192;SDS011;15473;50.840;3.396;2023-03-11T06:53:00;4.35;;;3.35;;
28192;SDS011;15473;50.840;3.396;2023-03-11T06:55:32;4.85;;;2.47;;
28192;SDS011;15473;50.840;3.396;2023-03-11T06:58:04;5.03;;;2.65;;
28192;SDS011;15473;50.840;3.396;2023-03-11T07:00:41;4.47;;;2.72;;
28192;SDS011;15473;50.840;3.396;2023-03-11T07:03:17;3.83;;;2.60;;
28192;SDS011;15473;50.840;3.396;2023-03-11T07:05:49;2.55;;;2.35;;
28192;SDS011;15473;50.840;3.396;2023-03-11T07:08:19;3.90;;;2.98;;
28192;SDS011;15473;50.840;3.396;2023-03-11T07:11:03;5.45;;;3.00;;
28192;SDS011;15473;50.840;3.396;2023-03-11T07:13:37;4.37;;;3.08;;
28192;SDS011;15473;50.840;3.396;2023-03-11T07:16:08;3.62;;;2.77;;
28192;SDS011;15473;50.840;3.396;2023-03-11T07:18:46;4.15;;;3.12;;
28192;SDS011;15473;50.840;3.396;2023-03-11T07:21:18;5.08;;;3.10;;
28192;SDS011;15473;50.840;3.396;2023-03-11T07:24:10;4.17;;;3.33;;
28192;SDS011;15473;50.840;3.396;2023-03-11T07:26:41;3.52;;;2.90;;
28192;SDS011;15473;50.840;3.396;2023-03-11T07:29:15;5.35;;;3.35;;
28192;SDS011;15473;50.840;3.396;2023-03-11T07:31:47;4.58;;;3.47;;
28192;SDS011;15473;50.840;3.396;2023-03-11T07:34:24;6.10;;;3.65;;
28192;SDS011;15473;50.840;3.396;2023-03-11T07:37:06;10.08;;;3.30;;
28192;SDS011;15473;50.840;3.396;2023-03-11T07:39:38;5.08;;;3.50;;
28192;SDS011;15473;50.840;3.396;2023-03-11T07:42:15;3.77;;;3.20;;
28192;SDS011;15473;50.840;3.396;2023-03-11T07:44:45;5.90;;;3.40;;
28192;SDS011;15473;50.840;3.396;2023-03-11T07:47:18;5.35;;;3.20;;
28192;SDS011;15473;50.840;3.396;2023-03-11T07:49:52;4.00;;;3.42;;
28192;SDS011;15473;50.840;3.396;2023-03-11T07:52:29;7.42;;;3.75;;
28192;SDS011;15473;50.840;3.396;2023-03-11T07:55:06;8.73;;;4.03;;
28192;SDS011;15473;50.840;3.396;2023-03-11T07:57:36;8.95;;;4.25;;
28192;SDS011;15473;50.840;3.396;2023-03-11T08:00:13;10.80;;;5.03;;
28192;SDS011;15473;50.840;3.396;2023-03-11T08:02:50;6.95;;;4.60;;
28192;SDS011;15473;50.840;3.396;2023-03-11T08:05:20;8.70;;;4.55;;
28192;SDS011;15473;50.840;3.396;2023-03-11T08:07:50;9.23;;;3.95;;
28192;SDS011;15473;50.840;3.396;2023-03-11T08:10:26;9.13;;;4.33;;
28192;SDS011;15473;50.840;3.396;2023-03-11T08:13:03;9.43;;;4.33;;
28192;SDS011;15473;50.840;3.396;2023-03-11T08:15:39;6.00;;;4.15;;
28192;SDS011;15473;50.840;3.396;2023-03-11T08:18:11;10.13;;;4.95;;
28192;SDS011;15473;50.840;3.396;2023-03-11T08:20:54;6.62;;;4.75;;
28192;SDS011;15473;50.840;3.396;2023-03-11T08:23:26;5.90;;;3.85;;
28192;SDS011;15473;50.840;3.396;2023-03-11T08:25:56;11.83;;;4.65;;
28192;SDS011;15473;50.840;3.396;2023-03-11T08:28:33;10.93;;;4.72;;
28192;SDS011;15473;50.840;3.396;2023-03-11T08:31:21;6.50;;;3.92;;
28192;SDS011;15473;50.840;3.396;2023-03-11T08:36:40;8.50;;;4.12;;
28192;SDS011;15473;50.840;3.396;2023-03-11T08:39:10;7.97;;;4.20;;
28192;SDS011;15473;50.840;3.396;2023-03-11T08:41:41;10.85;;;5.17;;
28192;SDS011;15473;50.840;3.396;2023-03-11T08:44:17;7.15;;;4.37;;
28192;SDS011;15473;50.840;3.396;2023-03-11T08:46:47;8.98;;;3.72;;
28192;SDS011;15473;50.840;3.396;2023-03-11T08:49:26;13.48;;;3.90;;
28192;SDS011;15473;50.840;3.396;2023-03-11T08:51:56;6.28;;;3.70;;
28192;SDS011;15473;50.840;3.396;2023-03-11T08:54:26;3.45;;;2.92;;
28192;SDS011;15473;50.840;3.396;2023-03-11T08:56:56;5.90;;;3.10;;
28192;SDS011;15473;50.840;3.396;2023-03-11T08:59:30;4.47;;;3.12;;
28192;SDS011;15473;50.840;3.396;2023-03-11T09:02:00;8.90;;;3.72;;
28192;SDS011;15473;50.840;3.396;2023-03-11T09:04:31;8.53;;;3.33;;
28192;SDS011;15473;50.840;3.396;2023-03-11T09:07:01;12.05;;;3.12;;
28192;SDS011;15473;50.840;3.396;2023-03-11T09:09:31;8.20;;;3.00;;
28192;SDS011;15473;50.840;3.396;2023-03-11T09:12:08;6.80;;;3.67;;
28192;SDS011;15473;50.840;3.396;2023-03-11T09:14:44;8.53;;;3.20;;
28192;SDS011;15473;50.840;3.396;2023-03-11T09:17:14;7.87;;;3.15;;
28192;SDS011;15473;50.840;3.396;2023-03-11T09:19:44;9.95;;;4.05;;
28192;SDS011;15473;50.840;3.396;2023-03-11T09:22:21;5.92;;;3.12;;
28192;SDS011;15473;50.840;3.396;2023-03-11T09:24:51;7.85;;;2.80;;
28192;SDS011;15473;50.840;3.396;2023-03-11T09:27:22;5.45;;;2.75;;
28192;SDS011;15473;50.840;3.396;2023-03-11T09:29:58;6.30;;;2.80;;
28192;SDS011;15473;50.840;3.396;2023-03-11T09:32:28;9.35;;;3.37;;
28192;SDS011;15473;50.840;3.396;2023-03-11T09:34:58;8.33;;;2.58;;
28192;SDS011;15473;50.840;3.396;2023-03-11T09:37:28;2.77;;;1.70;;
28192;SDS011;15473;50.840;3.396;2023-03-11T09:39:58;6.45;;;2.15;;
28192;SDS011;15473;50.840;3.396;2023-03-11T09:42:34;8.15;;;2.20;;
28192;SDS011;15473;50.840;3.396;2023-03-11T09:45:35;4.55;;;2.20;;
28192;SDS011;15473;50.840;3.396;2023-03-11T09:48:19;4.12;;;1.35;;
28192;SDS011;15473;50.840;3.396;2023-03-11T09:50:57;3.42;;;1.47;;
28192;SDS011;15473;50.840;3.396;2023-03-11T09:53:44;2.60;;;1.60;;
28192;SDS011;15473;50.840;3.396;2023-03-11T09:56:17;3.87;;;1.57;;
28192;SDS011;15473;50.840;3.396;2023-03-11T09:58:49;5.22;;;1.37;;
28192;SDS011;15473;50.840;3.396;2023-03-11T10:01:33;2.98;;;1.10;;
28192;SDS011;15473;50.840;3.396;2023-03-11T10:04:10;6.70;;;1.57;;
28192;SDS011;15473;50.840;3.396;2023-03-11T10:06:58;2.70;;;1.32;;
28192;SDS011;15473;50.840;3.396;2023-03-11T10:09:34;5.60;;;1.32;;
28192;SDS011;15473;50.840;3.396;2023-03-11T10:15:28;5.78;;;1.40;;
28192;SDS011;15473;50.840;3.396;2023-03-11T10:26:57;7.15;;;1.17;;
28192;SDS011;15473;50.840;3.396;2023-03-11T10:29:37;3.20;;;1.45;;
28192;SDS011;15473;50.840;3.396;2023-03-11T10:32:13;2.27;;;1.70;;
28192;SDS011;15473;50.840;3.396;2023-03-11T10:35:05;4.10;;;1.20;;
28192;SDS011;15473;50.840;3.396;2023-03-11T10:37:57;5.70;;;1.25;;
28192;SDS011;15473;50.840;3.396;2023-03-11T10:40:31;5.40;;;2.45;;
28192;SDS011;15473;50.840;3.396;2023-03-11T10:43:30;2.30;;;1.20;;
28192;SDS011;15473;50.840;3.396;2023-03-11T10:46:24;5.17;;;1.40;;
28192;SDS011;15473;50.840;3.396;2023-03-11T10:48:55;10.45;;;1.37;;
28192;SDS011;15473;50.840;3.396;2023-03-11T10:51:26;5.20;;;1.30;;
28192;SDS011;15473;50.840;3.396;2023-03-11T10:54:10;5.47;;;1.20;;
28192;SDS011;15473;50.840;3.396;2023-03-11T10:56:58;4.33;;;1.17;;
28192;SDS011;15473;50.840;3.396;2023-03-11T10:59:48;7.42;;;1.27;;
28192;SDS011;15473;50.840;3.396;2023-03-11T11:08:25;2.80;;;1.30;;
28192;SDS011;15473;50.840;3.396;2023-03-11T11:10:57;2.95;;;1.42;;
28192;SDS011;15473;50.840;3.396;2023-03-11T11:13:32;2.92;;;1.27;;
28192;SDS011;15473;50.840;3.396;2023-03-11T11:16:22;4.20;;;1.00;;
28192;SDS011;15473;50.840;3.396;2023-03-11T11:19:09;4.40;;;1.50;;
28192;SDS011;15473;50.840;3.396;2023-03-11T11:21:44;3.47;;;1.25;;
28192;SDS011;15473;50.840;3.396;2023-03-11T11:24:33;2.15;;;1.25;;
28192;SDS011;15473;50.840;3.396;2023-03-11T11:29:45;2.45;;;0.88;;
28192;SDS011;15473;50.840;3.396;2023-03-11T11:32:24;2.67;;;0.98;;
28192;SDS011;15473;50.840;3.396;2023-03-11T11:34:59;3.95;;;1.17;;
28192;SDS011;15473;50.840;3.396;2023-03-11T11:37:41;3.15;;;1.05;;
28192;SDS011;15473;50.840;3.396;2023-03-11T11:40:33;3.70;;;1.57;;
28192;SDS011;15473;50.840;3.396;2023-03-11T11:43:03;5.08;;;1.12;;
28192;SDS011;15473;50.840;3.396;2023-03-11T11:45:45;2.45;;;1.10;;
28192;SDS011;15473;50.840;3.396;2023-03-11T11:57:00;3.17;;;0.90;;
28192;SDS011;15473;50.840;3.396;2023-03-11T11:59:39;3.42;;;1.20;;
28192;SDS011;15473;50.840;3.396;2023-03-11T12:07:56;2.42;;;1.10;;
28192;SDS011;15473;50.840;3.396;2023-03-11T12:10:28;1.27;;;0.60;;
28192;SDS011;15473;50.840;3.396;2023-03-11T12:16:04;3.98;;;0.82;;
28192;SDS011;15473;50.840;3.396;2023-03-11T12:18:38;2.22;;;1.00;;
28192;SDS011;15473;50.840;3.396;2023-03-11T12:21:23;4.45;;;1.10;;
28192;SDS011;15473;50.840;3.396;2023-03-11T12:27:03;1.57;;;0.60;;
28192;SDS011;15473;50.840;3.396;2023-03-11T12:29:30;1.90;;;0.80;;
28192;SDS011;15473;50.840;3.396;2023-03-11T12:32:08;3.37;;;0.90;;
28192;SDS011;15473;50.840;3.396;2023-03-11T12:34:48;5.45;;;0.90;;
28192;SDS011;15473;50.840;3.396;2023-03-11T12:37:19;7.95;;;1.57;;
28192;SDS011;15473;50.840;3.396;2023-03-11T12:39:52;5.30;;;1.52;;
28192;SDS011;15473;50.840;3.396;2023-03-11T12:42:22;3.72;;;1.07;;
28192;SDS011;15473;50.840;3.396;2023-03-11T12:47:30;4.33;;;1.50;;
28192;SDS011;15473;50.840;3.396;2023-03-11T12:53:12;2.80;;;1.35;;
28192;SDS011;15473;50.840;3.396;2023-03-11T12:55:52;4.50;;;1.42;;
28192;SDS011;15473;50.840;3.396;2023-03-11T12:58:46;4.15;;;1.50;;
28192;SDS011;15473;50.840;3.396;2023-03-11T13:04:19;5.97;;;1.52;;
28192;SDS011;15473;50.840;3.396;2023-03-11T13:12:55;7.05;;;2.15;;
28192;SDS011;15473;50.840;3.396;2023-03-11T13:15:37;27.10;;;3.62;;
28192;SDS011;15473;50.840;3.396;2023-03-11T13:20:47;11.12;;;4.35;;
28192;SDS011;15473;50.840;3.396;2023-03-11T13:23:27;47.23;;;4.58;;
28192;SDS011;15473;50.840;3.396;2023-03-11T13:32:00;10.28;;;2.75;;
28192;SDS011;15473;50.840;3.396;2023-03-11T13:43:04;9.23;;;2.85;;
28192;SDS011;15473;50.840;3.396;2023-03-11T13:45:37;9.50;;;2.50;;
28192;SDS011;15473;50.840;3.396;2023-03-11T13:48:49;9.00;;;2.12;;
28192;SDS011;15473;50.840;3.396;2023-03-11T13:51:20;5.97;;;2.12;;
28192;SDS011;15473;50.840;3.396;2023-03-11T13:53:58;5.28;;;1.95;;
28192;SDS011;15473;50.840;3.396;2023-03-11T13:56:43;9.53;;;2.87;;
28192;SDS011;15473;50.840;3.396;2023-03-11T13:59:26;5.17;;;2.17;;
28192;SDS011;15473;50.840;3.396;2023-03-11T14:05:02;10.43;;;2.58;;
28192;SDS011;15473;50.840;3.396;2023-03-11T14:13:59;2.45;;;1.65;;
28192;SDS011;15473;50.840;3.396;2023-03-11T14:16:30;3.50;;;1.45;;
28192;SDS011;15473;50.840;3.396;2023-03-11T14:19:05;6.10;;;2.35;;
28192;SDS011;15473;50.840;3.396;2023-03-11T14:21:50;5.90;;;1.72;;
28192;SDS011;15473;50.840;3.396;2023-03-11T14:24:29;4.80;;;1.40;;
28192;SDS011;15473;50.840;3.396;2023-03-11T14:27:02;9.98;;;2.00;;
28192;SDS011;15473;50.840;3.396;2023-03-11T14:29:35;5.37;;;1.50;;
28192;SDS011;15473;50.840;3.396;2023-03-11T14:32:30;4.50;;;1.62;;
28192;SDS011;15473;50.840;3.396;2023-03-11T14:35:16;5.95;;;2.00;;
28192;SDS011;15473;50.840;3.396;2023-03-11T14:37:37;5.40;;;1.65;;
28192;SDS011;15473;50.840;3.396;2023-03-11T14:40:23;8.53;;;1.95;;
28192;SDS011;15473;50.840;3.396;2023-03-11T14:43:10;4.05;;;1.65;;
28192;SDS011;15473;50.840;3.396;2023-03-11T14:45:40;7.83;;;2.10;;
28192;SDS011;15473;50.840;3.396;2023-03-11T14:48:39;2.50;;;1.30;;
28192;SDS011;15473;50.840;3.396;2023-03-11T14:51:13;5.58;;;1.70;;
28192;SDS011;15473;50.840;3.396;2023-03-11T14:53:44;4.08;;;1.42;;
28192;SDS011;15473;50.840;3.396;2023-03-11T14:56:40;6.22;;;2.02;;
28192;SDS011;15473;50.840;3.396;2023-03-11T14:59:20;4.60;;;1.75;;
28192;SDS011;15473;50.840;3.396;2023-03-11T15:02:25;5.12;;;1.60;;
28192;SDS011;15473;50.840;3.396;2023-03-11T15:04:53;4.20;;;1.43;;
28192;SDS011;15473;50.840;3.396;2023-03-11T15:07:24;3.15;;;1.77;;
28192;SDS011;15473;50.840;3.396;2023-03-11T15:10:01;8.40;;;1.87;;
28192;SDS011;15473;50.840;3.396;2023-03-11T15:12:33;4.17;;;1.75;;
28192;SDS011;15473;50.840;3.396;2023-03-11T15:15:19;3.55;;;1.60;;
28192;SDS011;15473;50.840;3.396;2023-03-11T15:18:14;6.53;;;1.92;;
28192;SDS011;15473;50.840;3.396;2023-03-11T15:21:01;8.73;;;1.80;;
28192;SDS011;15473;50.840;3.396;2023-03-11T15:23:46;6.30;;;1.80;;
28192;SDS011;15473;50.840;3.396;2023-03-11T15:26:22;5.20;;;1.32;;
28192;SDS011;15473;50.840;3.396;2023-03-11T15:31:35;3.30;;;1.27;;
28192;SDS011;15473;50.840;3.396;2023-03-11T15:37:02;3.65;;;1.20;;
28192;SDS011;15473;50.840;3.396;2023-03-11T15:39:40;3.00;;;1.20;;
28192;SDS011;15473;50.840;3.396;2023-03-11T15:42:24;3.27;;;1.40;;
28192;SDS011;15473;50.840;3.396;2023-03-11T15:45:01;6.70;;;1.52;;
28192;SDS011;15473;50.840;3.396;2023-03-11T15:47:47;9.70;;;1.45;;
28192;SDS011;15473;50.840;3.396;2023-03-11T15:50:53;5.10;;;1.50;;
28192;SDS011;15473;50.840;3.396;2023-03-11T15:53:40;5.22;;;2.12;;
28192;SDS011;15473;50.840;3.396;2023-03-11T15:56:12;6.60;;;1.82;;
28192;SDS011;15473;50.840;3.396;2023-03-11T15:58:50;4.70;;;1.90;;
28192;SDS011;15473;50.840;3.396;2023-03-11T16:01:20;4.22;;;1.87;;
28192;SDS011;15473;50.840;3.396;2023-03-11T16:03:59;10.55;;;2.30;;
28192;SDS011;15473;50.840;3.396;2023-03-11T16:06:28;8.83;;;1.95;;
28192;SDS011;15473;50.840;3.396;2023-03-11T16:08:59;4.67;;;1.60;;
28192;SDS011;15473;50.840;3.396;2023-03-11T16:11:29;3.83;;;1.65;;
28192;SDS011;15473;50.840;3.396;2023-03-11T16:14:00;3.40;;;1.70;;
28192;SDS011;15473;50.840;3.396;2023-03-11T16:16:33;3.12;;;1.40;;
28192;SDS011;15473;50.840;3.396;2023-03-11T16:19:05;4.75;;;1.50;;
28192;SDS011;15473;50.840;3.396;2023-03-11T16:21:43;3.95;;;1.57;;
28192;SDS011;15473;50.840;3.396;2023-03-11T16:24:26;9.05;;;1.90;;
28192;SDS011;15473;50.840;3.396;2023-03-11T16:27:03;3.90;;;1.27;;
28192;SDS011;15473;50.840;3.396;2023-03-11T16:29:39;5.60;;;1.50;;
28192;SDS011;15473;50.840;3.396;2023-03-11T16:32:10;2.75;;;1.62;;
28192;SDS011;15473;50.840;3.396;2023-03-11T16:34:53;3.75;;;1.45;;
28192;SDS011;15473;50.840;3.396;2023-03-11T16:37:25;3.47;;;1.90;;
28192;SDS011;15473;50.840;3.396;2023-03-11T16:39:59;4.97;;;1.72;;
28192;SDS011;15473;50.840;3.396;2023-03-11T16:42:35;4.20;;;1.80;;
28192;SDS011;15473;50.840;3.396;2023-03-11T16:45:13;4.20;;;1.27;;
28192;SDS011;15473;50.840;3.396;2023-03-11T16:47:44;6.65;;;1.72;;
28192;SDS011;15473;50.840;3.396;2023-03-11T16:50:15;11.68;;;1.55;;
28192;SDS011;15473;50.840;3.396;2023-03-11T16:52:52;4.72;;;1.42;;
28192;SDS011;15473;50.840;3.396;2023-03-11T16:55:29;6.10;;;1.72;;
28192;SDS011;15473;50.840;3.396;2023-03-11T16:58:06;5.80;;;1.95;;
28192;SDS011;15473;50.840;3.396;2023-03-11T17:00:36;7.03;;;2.20;;
28192;SDS011;15473;50.840;3.396;2023-03-11T17:03:20;5.70;;;2.08;;
28192;SDS011;15473;50.840;3.396;2023-03-11T17:05:50;4.17;;;1.42;;
28192;SDS011;15473;50.840;3.396;2023-03-11T17:08:30;4.50;;;1.98;;
28192;SDS011;15473;50.840;3.396;2023-03-11T17:11:00;5.28;;;2.30;;
28192;SDS011;15473;50.840;3.396;2023-03-11T17:13:31;2.45;;;1.70;;
28192;SDS011;15473;50.840;3.396;2023-03-11T17:16:01;7.60;;;2.40;;
28192;SDS011;15473;50.840;3.396;2023-03-11T17:18:44;4.15;;;1.72;;